createdAt,value
2017-10-12T00:00:41.173Z,68.90
2017-10-12T00:03:10.002Z,68.90
2017-10-12T00:05:38.840Z,68.70
2017-10-12T00:08:07.725Z,68.50
2017-10-12T00:10:36.570Z,68.60
2017-10-12T00:13:05.409Z,68.50
2017-10-12T00:15:34.250Z,68.30
2017-10-12T00:18:03.087Z,68.20
2017-10-12T00:20:31.939Z,68.00
2017-10-12T00:23:00.773Z,68.00
2017-10-12T00:25:29.611Z,68.00
2017-10-12T00:27:58.467Z,67.90
2017-10-12T00:30:27.304Z,67.90
2017-10-12T00:32:56.148Z,68.00
2017-10-12T00:35:25.767Z,68.20
2017-10-12T00:37:55.422Z,68.30
2017-10-12T00:40:24.322Z,68.30
2017-10-12T00:42:53.169Z,68.10
2017-10-12T00:45:22.433Z,68.50
2017-10-12T00:47:51.276Z,68.50
2017-10-12T00:50:20.122Z,68.60
2017-10-12T00:52:48.997Z,68.50
2017-10-12T00:55:17.839Z,68.50
2017-10-12T00:57:46.685Z,68.50
2017-10-12T01:00:15.409Z,68.70
2017-10-12T01:02:43.915Z,68.90
2017-10-12T01:05:13.020Z,69.10
2017-10-12T01:07:42.630Z,69.30
2017-10-12T01:10:11.472Z,69.20
2017-10-12T01:12:40.363Z,69.30
2017-10-12T01:15:09.202Z,69.50
2017-10-12T01:17:38.040Z,69.40
2017-10-12T01:20:05.987Z,69.40
2017-10-12T01:22:33.962Z,69.40
2017-10-12T01:25:02.103Z,69.50
2017-10-12T01:27:30.348Z,69.40
2017-10-12T01:29:59.426Z,69.30
2017-10-12T01:32:28.698Z,69.40
2017-10-12T01:34:56.843Z,69.30
2017-10-12T01:37:25.010Z,69.10
2017-10-12T01:39:52.967Z,69.10
2017-10-12T01:42:21.888Z,69.10
2017-10-12T01:44:50.036Z,69.10
2017-10-12T01:47:18.527Z,69.10
2017-10-12T01:49:47.106Z,69.10
2017-10-12T01:52:15.605Z,69.20
2017-10-12T01:54:44.480Z,69.20
2017-10-12T01:57:13.318Z,69.30
2017-10-12T01:59:42.161Z,69.30
2017-10-12T02:02:10.298Z,69.30
2017-10-12T02:04:39.137Z,70.00
2017-10-12T02:07:07.960Z,69.30
2017-10-12T02:09:36.815Z,69.30
2017-10-12T02:12:05.650Z,69.30
2017-10-12T02:14:34.133Z,69.20
2017-10-12T02:17:02.621Z,69.30
2017-10-12T02:19:31.555Z,69.30
2017-10-12T02:22:01.248Z,69.40
2017-10-12T02:24:30.498Z,69.50
2017-10-12T02:26:59.998Z,69.50
2017-10-12T02:29:28.843Z,69.50
2017-10-12T02:31:58.451Z,69.60
2017-10-12T02:34:27.295Z,69.60
2017-10-12T02:36:56.145Z,69.60
2017-10-12T02:39:24.996Z,69.80
2017-10-12T02:41:53.844Z,70.00
2017-10-12T02:44:22.688Z,70.10
2017-10-12T02:46:51.528Z,70.10
2017-10-12T02:49:20.516Z,70.30
2017-10-12T02:51:49.398Z,70.40
2017-10-12T02:54:18.252Z,70.40
2017-10-12T02:56:47.099Z,70.70
2017-10-12T02:59:15.937Z,70.80
2017-10-12T03:01:44.772Z,70.80
2017-10-12T03:04:13.610Z,70.80
2017-10-12T03:06:42.489Z,70.90
2017-10-12T03:09:11.328Z,71.10
2017-10-12T03:11:40.943Z,71.40
2017-10-12T03:14:09.789Z,71.40
2017-10-12T03:16:37.747Z,71.60
2017-10-12T03:19:06.589Z,71.70
2017-10-12T03:21:35.433Z,71.90
2017-10-12T03:24:04.273Z,72.00
2017-10-12T03:26:33.824Z,72.20
2017-10-12T03:29:02.669Z,72.30
2017-10-12T03:31:31.511Z,72.50
2017-10-12T03:34:00.203Z,72.80
2017-10-12T03:36:30.481Z,73.20
2017-10-12T03:38:59.126Z,73.20
2017-10-12T03:41:27.971Z,73.10
2017-10-12T03:43:56.637Z,73.20
2017-10-12T03:46:25.310Z,73.20
2017-10-12T03:48:58.318Z,73.20
2017-10-12T03:54:09.132Z,73.70
2017-10-12T03:56:37.970Z,73.70
2017-10-12T03:59:07.578Z,74.10
2017-10-12T04:01:36.229Z,74.10
2017-10-12T04:04:05.076Z,74.10
2017-10-12T04:06:34.858Z,74.50
2017-10-12T04:09:03.175Z,74.50
2017-10-12T04:11:32.026Z,74.70
2017-10-12T04:14:00.866Z,74.80
2017-10-12T04:16:29.714Z,75.00
2017-10-12T04:18:58.559Z,75.10
2017-10-12T04:21:27.431Z,74.60
2017-10-12T04:23:56.755Z,75.20
2017-10-12T04:26:25.083Z,75.00
2017-10-12T04:28:53.726Z,74.80
2017-10-12T04:31:22.571Z,75.50
2017-10-12T04:33:52.204Z,74.60
2017-10-12T04:36:21.049Z,74.50
2017-10-12T04:38:49.903Z,74.50
2017-10-12T04:41:18.459Z,74.90
2017-10-12T04:43:47.290Z,74.20
2017-10-12T04:46:16.136Z,74.10
2017-10-12T04:48:44.962Z,74.10
2017-10-12T04:51:13.817Z,74.00
2017-10-12T04:53:42.664Z,73.90
2017-10-12T04:56:11.510Z,73.90
2017-10-12T04:58:40.404Z,73.90
2017-10-12T05:01:09.241Z,73.60
2017-10-12T05:03:39.022Z,73.40
2017-10-12T05:06:07.885Z,73.30
2017-10-12T05:08:36.722Z,73.20
2017-10-12T05:11:05.583Z,72.90
2017-10-12T05:13:34.410Z,72.90
2017-10-12T05:16:03.709Z,72.80
2017-10-12T05:18:32.602Z,72.60
2017-10-12T05:21:01.443Z,72.60
2017-10-12T05:23:30.287Z,72.50
2017-10-12T05:25:58.786Z,72.40
2017-10-12T05:28:28.209Z,72.10
2017-10-12T05:30:57.814Z,71.90
2017-10-12T05:33:26.663Z,71.90
2017-10-12T05:35:55.521Z,71.90
2017-10-12T05:38:24.942Z,71.90
2017-10-12T05:40:53.786Z,71.90
2017-10-12T05:43:23.399Z,71.80
2017-10-12T05:45:53.021Z,71.80
2017-10-12T05:48:21.876Z,71.90
2017-10-12T05:50:50.711Z,71.90
2017-10-12T05:53:19.560Z,72.00
2017-10-12T05:55:49.163Z,71.60
2017-10-12T05:58:18.844Z,72.10
2017-10-12T06:00:47.535Z,72.30
2017-10-12T06:03:16.386Z,72.40
2017-10-12T06:05:45.282Z,72.40
2017-10-12T06:08:14.118Z,72.50
2017-10-12T06:10:42.962Z,72.60
2017-10-12T06:13:11.618Z,72.90
2017-10-12T06:15:40.282Z,73.00
2017-10-12T06:18:09.127Z,73.00
2017-10-12T06:20:37.997Z,72.90
2017-10-12T06:23:06.850Z,72.90
2017-10-12T06:25:35.715Z,72.90
2017-10-12T06:28:04.557Z,72.80
2017-10-12T06:30:33.394Z,72.30
2017-10-12T06:33:02.831Z,72.40
2017-10-12T06:35:32.480Z,72.50
2017-10-12T06:38:01.684Z,72.40
2017-10-12T06:40:29.831Z,72.40
2017-10-12T06:42:58.666Z,72.30
2017-10-12T06:45:27.508Z,72.20
2017-10-12T06:47:56.370Z,72.50
2017-10-12T06:50:25.226Z,72.60
2017-10-12T06:52:54.074Z,72.50
2017-10-12T06:55:22.738Z,72.70
2017-10-12T06:57:51.588Z,72.70
2017-10-12T07:00:20.098Z,72.60
2017-10-12T07:02:48.930Z,73.00
2017-10-12T07:05:17.763Z,72.20
2017-10-12T07:07:46.592Z,72.00
2017-10-12T07:10:15.439Z,71.90
2017-10-12T07:12:44.665Z,71.70
2017-10-12T07:15:13.497Z,71.60
2017-10-12T07:17:42.916Z,71.70
2017-10-12T07:20:12.540Z,71.80
2017-10-12T07:22:41.378Z,71.80
2017-10-12T07:25:10.325Z,71.80
2017-10-12T07:27:39.987Z,71.70
2017-10-12T07:30:08.831Z,71.80
2017-10-12T07:32:37.666Z,71.80
2017-10-12T07:35:06.515Z,71.60
2017-10-12T07:37:35.355Z,71.70
2017-10-12T07:40:03.854Z,71.50
2017-10-12T07:42:33.470Z,71.50
2017-10-12T07:45:03.228Z,71.40
2017-10-12T07:47:32.064Z,71.70
2017-10-12T07:50:01.672Z,72.30
2017-10-12T07:52:31.292Z,73.00
2017-10-12T07:55:00.899Z,72.50
2017-10-12T07:57:30.514Z,72.40
2017-10-12T08:00:00.175Z,72.50
2017-10-12T08:02:29.036Z,72.40
2017-10-12T08:04:57.876Z,72.50
2017-10-12T08:07:26.708Z,72.50
2017-10-12T08:09:55.547Z,72.40
2017-10-12T08:12:24.383Z,72.20
2017-10-12T08:14:53.235Z,72.00
2017-10-12T08:17:22.166Z,71.90
2017-10-12T08:19:51.034Z,71.90
2017-10-12T08:22:20.643Z,71.50
2017-10-12T08:24:50.247Z,71.50
2017-10-12T08:27:19.098Z,71.40
2017-10-12T08:29:47.938Z,71.40
2017-10-12T08:32:17.559Z,71.10
2017-10-12T08:34:46.435Z,71.10
2017-10-12T08:37:16.166Z,71.10
2017-10-12T08:39:45.016Z,71.10
2017-10-12T08:42:13.866Z,70.80
2017-10-12T08:44:42.703Z,70.50
2017-10-12T08:47:11.358Z,70.30
2017-10-12T08:49:40.011Z,69.90
2017-10-12T08:52:08.674Z,69.00
2017-10-12T08:54:38.460Z,67.30
2017-10-12T08:57:07.463Z,67.20
2017-10-12T08:59:37.094Z,66.10
2017-10-12T09:02:06.710Z,65.40
2017-10-12T09:04:36.128Z,64.90
2017-10-12T09:07:05.582Z,64.90
2017-10-12T09:09:34.458Z,64.70
2017-10-12T09:12:03.843Z,64.40
2017-10-12T09:14:32.698Z,64.70
2017-10-12T09:17:03.071Z,64.90
2017-10-12T09:19:31.918Z,64.80
2017-10-12T09:22:01.523Z,65.30
2017-10-12T09:24:31.128Z,65.50
2017-10-12T09:26:59.791Z,65.30
2017-10-12T09:29:27.943Z,65.30
2017-10-12T09:31:57.052Z,65.30
2017-10-12T09:34:25.794Z,65.30
2017-10-12T09:36:54.291Z,65.20
2017-10-12T09:39:22.250Z,65.00
2017-10-12T09:41:50.217Z,64.60
2017-10-12T09:44:18.520Z,63.30
2017-10-12T09:46:47.428Z,62.50
2017-10-12T09:49:15.600Z,62.30
2017-10-12T09:51:44.126Z,61.70
2017-10-12T09:54:13.737Z,60.40
2017-10-12T09:56:43.339Z,60.00
2017-10-12T09:59:12.173Z,59.80
2017-10-12T10:01:41.090Z,59.30
2017-10-12T10:04:09.944Z,58.90
2017-10-12T10:06:39.735Z,58.20
2017-10-12T10:09:08.999Z,57.70
2017-10-12T10:11:37.836Z,57.70
2017-10-12T10:14:07.453Z,57.30
2017-10-12T10:16:36.329Z,57.20
2017-10-12T10:19:05.939Z,57.30
2017-10-12T10:21:35.562Z,57.30
2017-10-12T10:24:04.696Z,57.30
2017-10-12T10:26:33.558Z,57.60
2017-10-12T10:29:02.395Z,57.70
2017-10-12T10:31:31.234Z,57.90
2017-10-12T10:34:01.158Z,58.10
2017-10-12T10:36:30.008Z,58.10
2017-10-12T10:38:58.862Z,58.00
2017-10-12T10:41:27.710Z,58.00
2017-10-12T10:43:56.560Z,58.00
2017-10-12T10:46:25.399Z,57.90
2017-10-12T10:48:54.244Z,57.20
2017-10-12T10:51:23.099Z,56.90
2017-10-12T10:53:52.040Z,56.80
2017-10-12T10:56:20.885Z,56.50
2017-10-12T10:58:49.739Z,56.30
2017-10-12T11:01:19.439Z,56.90
2017-10-12T11:03:49.059Z,56.70
2017-10-12T11:06:18.685Z,57.00
2017-10-12T11:08:47.544Z,57.00
2017-10-12T11:11:16.395Z,56.60
2017-10-12T11:13:45.259Z,56.40
2017-10-12T11:16:14.117Z,56.20
2017-10-12T11:18:42.950Z,55.90
2017-10-12T11:21:11.799Z,55.40
2017-10-12T11:23:41.420Z,54.60
2017-10-12T11:26:11.038Z,54.60
2017-10-12T11:28:39.889Z,55.20
2017-10-12T11:31:08.722Z,54.40
2017-10-12T11:33:37.562Z,54.40
2017-10-12T11:36:06.416Z,54.00
2017-10-12T11:38:35.260Z,53.70
2017-10-12T11:41:05.036Z,53.90
2017-10-12T11:43:33.877Z,54.10
2017-10-12T11:46:03.486Z,54.40
2017-10-12T11:48:33.096Z,54.50
2017-10-12T11:51:02.710Z,54.30
2017-10-12T11:53:31.557Z,54.10
2017-10-12T11:56:00.400Z,54.00
2017-10-12T11:58:29.547Z,54.40
2017-10-12T12:00:58.238Z,54.40
2017-10-12T12:03:26.892Z,54.90
2017-10-12T12:05:55.747Z,55.10
2017-10-12T12:08:25.359Z,54.40
2017-10-12T12:10:54.973Z,54.10
2017-10-12T12:13:23.840Z,54.10
2017-10-12T12:15:52.675Z,53.90
2017-10-12T12:18:21.510Z,53.70
2017-10-12T12:20:50.349Z,53.40
2017-10-12T12:23:19.198Z,53.00
2017-10-12T12:25:48.139Z,52.70
2017-10-12T12:28:16.980Z,52.40
2017-10-12T12:30:45.846Z,51.80
2017-10-12T12:33:14.687Z,50.80
2017-10-12T12:35:43.552Z,50.30
2017-10-12T12:38:12.388Z,50.30
2017-10-12T12:40:41.224Z,50.40
2017-10-12T12:43:10.066Z,50.40
2017-10-12T12:45:38.926Z,50.90
2017-10-12T12:48:07.775Z,51.50
2017-10-12T12:50:36.615Z,52.40
2017-10-12T12:53:06.227Z,54.20
2017-10-12T12:55:36.631Z,54.90
2017-10-12T12:58:05.465Z,54.90
2017-10-12T13:00:34.327Z,55.30
2017-10-12T13:03:03.165Z,55.90
2017-10-12T13:05:32.030Z,56.50
2017-10-12T13:08:02.044Z,56.80
2017-10-12T13:10:31.913Z,57.30
2017-10-12T13:13:02.370Z,57.60
2017-10-12T13:15:34.456Z,57.70
2017-10-12T13:18:03.435Z,57.60
2017-10-12T13:20:32.132Z,57.60
2017-10-12T13:23:00.806Z,57.40
2017-10-12T13:25:29.628Z,57.00
2017-10-12T13:27:58.481Z,57.00
2017-10-12T13:30:27.402Z,57.10
2017-10-12T13:32:56.463Z,57.20
2017-10-12T13:35:25.393Z,57.00
2017-10-12T13:37:54.934Z,57.20
2017-10-12T13:40:23.816Z,57.10
2017-10-12T13:42:52.690Z,57.00
2017-10-12T13:45:21.543Z,56.80
2017-10-12T13:47:50.395Z,56.90
2017-10-12T13:50:18.564Z,57.20
2017-10-12T13:52:47.398Z,57.40
2017-10-12T13:55:16.247Z,57.00
2017-10-12T13:57:45.091Z,57.00
2017-10-12T14:00:14.359Z,56.50
2017-10-12T14:02:43.200Z,56.50
2017-10-12T14:05:12.038Z,55.90
2017-10-12T14:07:40.538Z,55.40
2017-10-12T14:10:08.673Z,54.80
2017-10-12T14:12:37.319Z,54.20
2017-10-12T14:15:05.996Z,53.70
2017-10-12T14:17:35.605Z,52.90
2017-10-12T14:20:04.452Z,52.80
2017-10-12T14:22:33.295Z,52.60
2017-10-12T14:25:02.905Z,52.00
2017-10-12T14:27:32.505Z,51.50
2017-10-12T14:30:02.117Z,51.30
2017-10-12T14:32:30.976Z,51.30
2017-10-12T14:34:59.853Z,50.70
2017-10-12T14:37:28.693Z,50.50
2017-10-12T14:39:58.325Z,50.80
2017-10-12T14:42:27.167Z,50.80
2017-10-12T14:44:56.009Z,51.00
2017-10-12T14:47:24.850Z,51.00
2017-10-12T14:49:53.690Z,51.30
2017-10-12T14:52:22.528Z,51.10
2017-10-12T14:54:51.373Z,51.20
2017-10-12T14:57:20.229Z,51.30
2017-10-12T14:59:49.667Z,51.70
2017-10-12T15:02:18.307Z,51.60
2017-10-12T15:04:46.944Z,51.80
2017-10-12T15:07:15.601Z,52.00
2017-10-12T15:09:45.223Z,52.20
2017-10-12T15:12:14.074Z,52.10
2017-10-12T15:14:42.918Z,52.20
2017-10-12T15:17:11.760Z,52.40
2017-10-12T15:24:56.612Z,52.90
2017-10-12T15:27:31.377Z,53.30
2017-10-12T15:30:03.925Z,53.20
2017-10-12T15:32:34.853Z,52.80
2017-10-12T15:35:04.772Z,53.00
2017-10-12T15:37:34.378Z,53.10
2017-10-12T15:40:03.215Z,53.10
2017-10-12T15:42:32.076Z,53.20
2017-10-12T15:45:00.940Z,53.30
2017-10-12T15:47:29.593Z,53.50
2017-10-12T15:49:58.443Z,53.70
2017-10-12T15:52:27.278Z,53.60
2017-10-12T15:54:56.118Z,53.80
2017-10-12T15:57:26.019Z,54.50
2017-10-12T15:59:54.878Z,54.00
2017-10-12T16:02:24.382Z,54.20
2017-10-12T16:04:53.227Z,54.50
2017-10-12T16:07:22.126Z,54.50
2017-10-12T16:09:50.972Z,54.60
2017-10-12T16:12:19.820Z,54.90
2017-10-12T16:14:49.634Z,55.00
2017-10-12T16:19:47.340Z,55.40
2017-10-12T16:22:16.956Z,59.00
2017-10-12T16:24:46.567Z,57.80
2017-10-12T16:27:16.202Z,58.60
2017-10-12T16:29:45.044Z,58.60
2017-10-12T16:32:14.694Z,58.30
2017-10-12T16:34:43.363Z,58.30
2017-10-12T16:37:12.969Z,58.60
2017-10-12T16:39:42.386Z,58.30
2017-10-12T16:42:11.227Z,58.20
2017-10-12T16:44:40.818Z,59.00
2017-10-12T16:47:09.658Z,58.00
2017-10-12T16:49:39.276Z,58.90
2017-10-12T16:52:08.875Z,57.70
2017-10-12T16:54:39.023Z,57.50
2017-10-12T16:57:07.874Z,57.50
2017-10-12T16:59:36.521Z,57.50
2017-10-12T17:02:05.189Z,57.50
2017-10-12T17:04:34.043Z,57.70
2017-10-12T17:07:02.884Z,57.90
2017-10-12T17:09:32.510Z,58.20
2017-10-12T17:12:02.082Z,58.10
2017-10-12T17:14:30.932Z,58.10
2017-10-12T17:17:00.737Z,58.40
2017-10-12T17:19:30.270Z,58.50
2017-10-12T17:21:59.883Z,58.70
2017-10-12T17:24:29.488Z,58.70
2017-10-12T17:26:59.092Z,59.30
2017-10-12T17:29:27.941Z,59.60
2017-10-12T17:31:57.771Z,59.00
2017-10-12T17:34:26.621Z,59.10
2017-10-12T17:36:55.728Z,59.20
2017-10-12T17:39:25.148Z,59.40
2017-10-12T17:41:53.988Z,59.40
2017-10-12T17:44:23.687Z,59.60
2017-10-12T17:46:52.540Z,59.90
2017-10-12T17:49:21.209Z,60.10
2017-10-12T17:51:49.855Z,60.30
2017-10-12T17:56:47.253Z,61.50
2017-10-12T17:59:16.981Z,61.20
2017-10-12T18:01:45.832Z,61.30
2017-10-12T18:04:45.205Z,61.50
2017-10-12T18:09:13.169Z,61.70
2017-10-12T18:11:42.010Z,61.70
2017-10-12T18:14:10.850Z,61.80
2017-10-12T18:16:39.966Z,61.70
2017-10-12T18:19:08.823Z,61.60
2017-10-12T18:21:37.675Z,61.50
2017-10-12T18:24:07.295Z,61.50
2017-10-12T18:26:36.936Z,61.70
2017-10-12T18:29:06.023Z,61.60
2017-10-12T18:31:34.887Z,61.80
2017-10-12T18:34:04.511Z,62.10
2017-10-12T18:36:34.125Z,62.10
2017-10-12T18:39:02.904Z,62.00
2017-10-12T18:41:31.767Z,62.40
2017-10-12T18:44:00.611Z,62.30
2017-10-12T18:46:29.463Z,62.40
2017-10-12T18:48:58.306Z,62.50
2017-10-12T18:51:27.157Z,62.60
2017-10-12T18:53:56.776Z,62.80
2017-10-12T18:56:25.648Z,62.70
2017-10-12T18:58:55.383Z,63.10
2017-10-12T19:01:24.231Z,63.00
2017-10-12T19:03:53.087Z,63.20
2017-10-12T19:06:21.948Z,63.50
2017-10-12T19:08:51.564Z,63.60
2017-10-12T19:11:20.426Z,63.60
2017-10-12T19:13:49.298Z,64.10
2017-10-12T19:16:18.150Z,63.10
2017-10-12T19:18:47.003Z,63.20
2017-10-12T19:21:15.672Z,63.10
2017-10-12T19:23:44.239Z,62.90
2017-10-12T19:26:13.088Z,63.00
2017-10-12T19:28:41.936Z,63.10
2017-10-12T19:31:10.978Z,63.20
2017-10-12T19:33:39.510Z,63.20
2017-10-12T19:36:08.376Z,63.30
2017-10-12T19:38:37.213Z,63.30
2017-10-12T19:43:36.530Z,63.30
2017-10-12T19:46:05.084Z,63.20
2017-10-12T19:48:33.929Z,63.20
2017-10-12T19:53:32.968Z,63.30
2017-10-12T19:56:06.652Z,63.40
2017-10-12T19:59:05.052Z,63.40
2017-10-12T20:01:04.419Z,63.40
2017-10-12T20:06:02.127Z,63.70
2017-10-12T20:08:30.787Z,63.80
2017-10-12T20:11:00.382Z,63.80
2017-10-12T20:13:29.997Z,64.10
2017-10-12T20:16:00.457Z,64.00
2017-10-12T20:18:29.307Z,64.00
2017-10-12T20:20:58.152Z,64.20
2017-10-12T20:23:27.001Z,68.30
2017-10-12T20:25:56.603Z,65.40
2017-10-12T20:28:25.445Z,65.30
2017-10-12T20:30:54.957Z,64.50
2017-10-12T20:33:26.086Z,65.10
2017-10-12T20:35:54.939Z,65.10
2017-10-12T20:38:24.549Z,65.00
2017-10-12T20:40:55.171Z,65.20
2017-10-12T20:43:24.015Z,65.10
2017-10-12T20:45:52.867Z,65.30
2017-10-12T20:48:21.720Z,65.50
2017-10-12T20:50:50.994Z,65.60
2017-10-12T20:53:19.835Z,65.50
2017-10-12T20:55:48.672Z,65.30
2017-10-12T20:58:17.530Z,64.90
2017-10-12T21:00:47.152Z,64.60
2017-10-12T21:03:16.342Z,64.50
2017-10-12T21:05:45.946Z,64.80
2017-10-12T21:08:16.342Z,64.10
2017-10-12T21:10:45.177Z,64.00
2017-10-12T21:13:14.032Z,64.00
2017-10-12T21:15:42.871Z,64.00
2017-10-12T21:18:11.722Z,63.80
2017-10-12T21:20:41.616Z,63.80
2017-10-12T21:23:10.563Z,63.90
2017-10-12T21:25:39.415Z,63.80
2017-10-12T21:28:08.289Z,63.80
2017-10-12T21:30:37.155Z,64.00
2017-10-12T21:33:06.930Z,63.90
2017-10-12T21:35:38.271Z,64.00
2017-10-12T21:38:07.887Z,64.00
2017-10-12T21:40:37.508Z,64.10
2017-10-12T21:43:07.139Z,64.00
2017-10-12T21:45:36.759Z,64.10
2017-10-12T21:48:05.636Z,64.10
2017-10-12T21:50:34.487Z,64.10
2017-10-12T21:53:06.054Z,64.30
2017-10-12T21:55:35.846Z,64.20
2017-10-12T21:58:05.892Z,64.40
2017-10-12T22:00:34.746Z,64.40
2017-10-12T22:03:03.614Z,64.50
2017-10-12T22:05:32.467Z,64.40
2017-10-12T22:08:01.338Z,64.50
2017-10-12T22:10:31.145Z,64.40
2017-10-12T22:13:00.773Z,64.80
2017-10-12T22:15:30.396Z,64.80
2017-10-12T22:17:59.248Z,64.80
2017-10-12T22:20:28.122Z,64.90
2017-10-12T22:22:57.880Z,65.00
2017-10-12T22:25:26.734Z,65.20
2017-10-12T22:27:55.597Z,65.20
2017-10-12T22:30:24.434Z,65.40
2017-10-12T22:32:54.056Z,65.40
2017-10-12T22:35:23.667Z,65.50
2017-10-12T22:37:52.503Z,65.40
2017-10-12T22:40:20.667Z,65.40
2017-10-12T22:42:49.184Z,65.60
2017-10-12T22:45:18.834Z,65.50
2017-10-12T22:47:47.675Z,65.60
2017-10-12T22:50:16.327Z,65.80
2017-10-12T22:52:45.170Z,66.00
2017-10-12T22:55:14.590Z,66.10
2017-10-12T22:57:43.424Z,66.10
2017-10-12T23:00:12.272Z,66.30
2017-10-12T23:02:41.131Z,66.50
2017-10-12T23:05:09.979Z,67.10
2017-10-12T23:07:38.827Z,66.60
2017-10-12T23:10:07.644Z,66.70
2017-10-12T23:12:36.537Z,66.80
2017-10-12T23:15:05.418Z,67.00
2017-10-12T23:17:34.273Z,66.90
2017-10-12T23:20:03.124Z,66.90
2017-10-12T23:22:32.656Z,67.00
2017-10-12T23:25:01.539Z,66.80
2017-10-12T23:27:30.045Z,66.90
2017-10-12T23:29:59.693Z,67.10
2017-10-12T23:32:28.549Z,67.20
2017-10-12T23:34:57.398Z,67.40
2017-10-12T23:37:26.246Z,67.40
2017-10-12T23:39:55.079Z,67.50
2017-10-12T23:42:23.723Z,67.50
2017-10-12T23:44:53.164Z,67.70
2017-10-12T23:47:22.004Z,67.60
2017-10-12T23:49:50.859Z,67.80
2017-10-12T23:52:20.771Z,67.60
2017-10-12T23:54:49.314Z,67.70
2017-10-12T23:57:18.943Z,67.90
2017-10-12T23:59:47.817Z,67.80
